Terminal Aerodrome Forecast
Issued by NWS Cleveland, OH

Home | Current Version | Previous Version | Graphics & Text | Print | Product List | Glossary On
Versions: 1 2 3 4 5 6 7 8 9 10 11 12 13 14 15 16 17 18 19 20 21 22 23 24 25 26 27 28 29 30 31 32 33
751
FTUS41 KCLE 121703 AAB
TAFCLE
TAF AMD
KCLE 121703Z 1217/1318 31015G25KT 2SM -SN BLSN OVC025
      TEMPO 1217/1218 3/4SM -SN BKN018
     FM121900 30015G25KT 4SM -SHSN OVC020
      TEMPO 1220/1223 1SM -SHSN OVC015=

USA.gov is the U.S. government's official web portal to all federal, state and local government web resources and services.